createdAt,value
2016-12-06T00:00:04.965Z,2.25
2016-12-06T00:01:05.281Z,2.24
2016-12-06T00:02:04.979Z,2.25
2016-12-06T00:03:04.682Z,2.29
2016-12-06T00:04:05.000Z,2.25
2016-12-06T00:05:05.017Z,2.25
2016-12-06T00:06:05.022Z,2.32
2016-12-06T00:07:05.043Z,2.43
2016-12-06T00:08:04.727Z,2.29
2016-12-06T00:09:05.055Z,2.42
2016-12-06T00:10:05.081Z,2.39
2016-12-06T00:11:05.396Z,2.42
2016-12-06T00:12:05.407Z,2.46
2016-12-06T00:13:05.102Z,2.46
2016-12-06T00:14:05.116Z,2.5
2016-12-06T00:15:05.440Z,2.44
2016-12-06T00:16:04.822Z,2.46
2016-12-06T00:17:05.464Z,2.49
2016-12-06T00:18:05.475Z,2.38
2016-12-06T00:19:05.167Z,2.29
2016-12-06T00:20:05.180Z,2.28
2016-12-06T00:21:05.511Z,2.24
2016-12-06T00:22:04.889Z,2.29
2016-12-06T00:23:05.219Z,2.32
2016-12-06T00:24:05.228Z,2.35
2016-12-06T00:25:04.921Z,2.39
2016-12-06T00:26:05.296Z,2.5
2016-12-06T00:27:05.259Z,2.49
2016-12-06T00:28:05.590Z,2.6
2016-12-06T00:29:04.969Z,2.43
2016-12-06T00:30:05.612Z,2.38
2016-12-06T00:31:05.310Z,2.31
2016-12-06T00:32:05.657Z,2.24
2016-12-06T00:33:05.326Z,2.1
2016-12-06T00:34:05.020Z,1.97
2016-12-06T00:35:05.347Z,1.84
2016-12-06T00:36:05.359Z,1.78
2016-12-06T00:37:05.686Z,1.85
2016-12-06T00:38:05.385Z,2
2016-12-06T00:39:05.393Z,2.11
2016-12-06T00:40:05.091Z,2.2
2016-12-06T00:41:05.416Z,2.18
2016-12-06T00:42:05.114Z,2.08
2016-12-06T00:43:05.751Z,2.17
2016-12-06T00:44:05.449Z,2.14
2016-12-06T00:45:05.465Z,2.17
2016-12-06T00:46:05.795Z,2.08
2016-12-06T00:47:05.483Z,2.24
2016-12-06T00:48:05.176Z,2.24
2016-12-06T00:49:05.822Z,2.25
2016-12-06T00:50:05.517Z,2.24
2016-12-06T00:51:05.842Z,2.22
2016-12-06T00:52:05.224Z,2.15
2016-12-06T00:53:05.882Z,2.25
2016-12-06T00:54:05.262Z,2.31
2016-12-06T00:55:05.576Z,2.31
2016-12-06T00:56:05.593Z,2.32
2016-12-06T00:57:05.909Z,2.31
2016-12-06T00:58:05.921Z,2.22
2016-12-06T00:59:05.620Z,2.29
2016-12-06T01:00:05.629Z,2.44
2016-12-06T01:01:05.959Z,2.35
2016-12-06T01:02:05.967Z,2.31
2016-12-06T01:03:05.659Z,2.44
2016-12-06T01:04:05.993Z,2.44
2016-12-06T01:05:05.369Z,2.39
2016-12-06T01:06:06.038Z,2.32
2016-12-06T01:07:05.712Z,2.2
2016-12-06T01:08:05.404Z,2.17
2016-12-06T01:09:05.729Z,1.95
2016-12-06T01:10:06.075Z,2
2016-12-06T01:11:05.770Z,1.84
2016-12-06T01:12:06.078Z,1.81
2016-12-06T01:13:06.088Z,1.66
2016-12-06T01:14:05.477Z,1.62
2016-12-06T01:15:06.116Z,1.66
2016-12-06T01:16:05.494Z,1.85
2016-12-06T01:17:05.505Z,1.71
2016-12-06T01:18:05.834Z,1.62
2016-12-06T01:19:06.159Z,1.44
2016-12-06T01:20:05.540Z,1.45
2016-12-06T01:21:05.869Z,1.66
2016-12-06T01:22:06.193Z,1.73
2016-12-06T01:23:05.886Z,1.87
2016-12-06T01:24:05.900Z,1.95
2016-12-06T01:25:06.230Z,2.02
2016-12-06T01:26:05.917Z,2.07
2016-12-06T01:27:05.618Z,2.1
2016-12-06T01:28:05.635Z,2.08
2016-12-06T01:29:06.270Z,2.08
2016-12-06T01:30:06.279Z,2.15
2016-12-06T01:31:06.295Z,2.2
2016-12-06T01:32:05.984Z,2.15
2016-12-06T01:33:05.995Z,2.18
2016-12-06T01:34:06.005Z,2.2
2016-12-06T01:35:06.019Z,2.18
2016-12-06T01:36:05.712Z,2.08
2016-12-06T01:37:06.041Z,1.94
2016-12-06T01:38:05.773Z,1.73
2016-12-06T01:39:06.061Z,1.78
2016-12-06T01:40:06.071Z,1.84
2016-12-06T01:41:06.083Z,1.87
2016-12-06T01:42:05.780Z,1.97
2016-12-06T01:43:06.425Z,1.99
2016-12-06T01:44:06.116Z,2.04
2016-12-06T01:45:06.126Z,2.1
2016-12-06T01:46:06.452Z,2.08
2016-12-06T01:47:06.149Z,2.08
2016-12-06T01:48:06.164Z,2.08
2016-12-06T01:49:06.492Z,2.08
2016-12-06T01:50:06.185Z,2.14
2016-12-06T01:51:06.196Z,2.07
2016-12-06T01:52:06.203Z,2.07
2016-12-06T01:53:06.217Z,2.06
2016-12-06T01:54:06.252Z,2.04
2016-12-06T01:55:05.928Z,1.88
2016-12-06T01:56:06.248Z,1.99
2016-12-06T01:57:06.258Z,1.88
2016-12-06T01:58:06.290Z,1.68
2016-12-06T01:59:06.282Z,1.85
2016-12-06T02:00:06.624Z,1.88
2016-12-06T02:01:06.318Z,1.76
2016-12-06T02:02:06.316Z,1.92
2016-12-06T02:03:06.008Z,1.84
2016-12-06T02:04:06.366Z,1.89
2016-12-06T02:05:06.669Z,1.84
2016-12-06T02:06:06.674Z,1.95
2016-12-06T02:07:06.374Z,1.89
2016-12-06T02:08:06.384Z,1.8
2016-12-06T02:09:06.714Z,1.97
2016-12-06T02:10:06.719Z,1.95
2016-12-06T02:11:06.438Z,1.92
2016-12-06T02:12:06.449Z,1.94
2016-12-06T02:13:06.435Z,2.04
2016-12-06T02:14:06.766Z,2.1
2016-12-06T02:15:06.470Z,2.13
2016-12-06T02:16:06.469Z,2.08
2016-12-06T02:17:06.485Z,2.04
2016-12-06T02:18:06.499Z,2.02
2016-12-06T02:19:06.514Z,1.99
2016-12-06T02:20:06.209Z,2.08
2016-12-06T02:21:06.213Z,2.17
2016-12-06T02:22:06.216Z,2.22
2016-12-06T02:23:06.547Z,2.24
2016-12-06T02:24:06.883Z,2.08
2016-12-06T02:25:06.256Z,2.18
2016-12-06T02:26:06.899Z,2.04
2016-12-06T02:27:06.906Z,2.2
2016-12-06T02:28:06.602Z,2.22
2016-12-06T02:29:06.614Z,2.17
2016-12-06T02:30:06.626Z,2.18
2016-12-06T02:31:06.635Z,2.13
2016-12-06T02:32:06.646Z,2
2016-12-06T02:33:06.664Z,2.08
2016-12-06T02:34:06.983Z,2.24
2016-12-06T02:35:06.687Z,2.26
2016-12-06T02:36:06.371Z,2.14
2016-12-06T02:37:06.700Z,2.29
2016-12-06T02:38:06.399Z,2.18
2016-12-06T02:39:06.406Z,2.22
2016-12-06T02:40:06.737Z,2.28
2016-12-06T02:41:06.426Z,2.18
2016-12-06T02:42:07.074Z,2.22
2016-12-06T02:43:06.450Z,2.22
2016-12-06T02:44:06.470Z,2.14
2016-12-06T02:45:06.790Z,2.28
2016-12-06T02:46:06.800Z,2.1
2016-12-06T02:47:06.809Z,2.08
2016-12-06T02:48:06.507Z,2.14
2016-12-06T02:49:06.518Z,2.13
2016-12-06T02:50:06.527Z,2.13
2016-12-06T02:51:06.540Z,1.87
2016-12-06T02:52:06.862Z,1.76
2016-12-06T02:53:07.209Z,1.89
2016-12-06T02:54:06.582Z,1.81
2016-12-06T02:55:06.899Z,1.84
2016-12-06T02:56:06.907Z,1.92
2016-12-06T02:57:06.921Z,2
2016-12-06T02:58:06.614Z,2.02
2016-12-06T02:59:07.259Z,2
2016-12-06T03:00:06.953Z,2.02
2016-12-06T03:01:06.650Z,1.94
2016-12-06T03:02:06.663Z,1.91
2016-12-06T03:03:06.987Z,1.76
2016-12-06T03:04:07.312Z,1.62
2016-12-06T03:05:07.352Z,1.68
2016-12-06T03:06:07.331Z,1.73
2016-12-06T03:07:07.033Z,1.7
2016-12-06T03:08:07.358Z,1.76
2016-12-06T03:09:07.052Z,1.48
2016-12-06T03:10:07.380Z,1.41
2016-12-06T03:11:06.759Z,1.49
2016-12-06T03:12:06.767Z,1.6
2016-12-06T03:13:07.095Z,1.76
2016-12-06T03:14:06.787Z,1.91
2016-12-06T03:15:07.117Z,1.73
2016-12-06T03:16:07.128Z,1.88
2016-12-06T03:17:07.140Z,1.88
2016-12-06T03:18:06.832Z,1.84
2016-12-06T03:19:07.165Z,1.78
2016-12-06T03:20:06.856Z,1.76
2016-12-06T03:21:07.187Z,1.91
2016-12-06T03:22:06.880Z,1.81
2016-12-06T03:23:07.516Z,1.71
2016-12-06T03:24:07.215Z,1.76
2016-12-06T03:25:06.911Z,1.81
2016-12-06T03:26:07.550Z,1.88
2016-12-06T03:27:07.563Z,1.84
2016-12-06T03:28:07.263Z,1.94
2016-12-06T03:29:07.582Z,1.81
2016-12-06T03:30:07.283Z,1.84
2016-12-06T03:31:07.606Z,1.91
2016-12-06T03:32:06.987Z,1.88
2016-12-06T03:33:07.321Z,1.78
2016-12-06T03:34:07.637Z,1.91
2016-12-06T03:35:07.018Z,1.88
2016-12-06T03:36:07.030Z,1.85
2016-12-06T03:37:07.353Z,1.97
2016-12-06T03:38:07.365Z,1.91
2016-12-06T03:39:07.060Z,2.02
2016-12-06T03:40:07.390Z,2.02
2016-12-06T03:41:07.084Z,2.08
2016-12-06T03:42:07.726Z,2.07
2016-12-06T03:43:07.752Z,1.94
2016-12-06T03:44:07.135Z,1.85
2016-12-06T03:45:07.760Z,1.89
2016-12-06T03:46:07.457Z,1.87
2016-12-06T03:47:07.780Z,1.87
2016-12-06T03:48:07.796Z,1.8
2016-12-06T03:49:07.201Z,1.74
2016-12-06T03:50:07.503Z,1.97
2016-12-06T03:51:07.228Z,1.99
2016-12-06T03:52:07.835Z,2.08
2016-12-06T03:53:07.849Z,1.91
2016-12-06T03:54:07.539Z,1.6
2016-12-06T03:55:07.554Z,1.49
2016-12-06T03:56:07.880Z,1.66
2016-12-06T03:57:07.886Z,1.62
2016-12-06T03:58:07.585Z,1.77
2016-12-06T03:59:07.910Z,1.81
2016-12-06T04:00:07.606Z,1.91
2016-12-06T04:01:07.641Z,2
2016-12-06T04:02:07.946Z,1.95
2016-12-06T04:03:07.323Z,2.04
2016-12-06T04:04:07.650Z,1.92
2016-12-06T04:05:07.977Z,1.88
2016-12-06T04:06:07.361Z,1.97
2016-12-06T04:07:07.365Z,1.84
2016-12-06T04:08:07.707Z,1.85
2016-12-06T04:09:07.700Z,1.74
2016-12-06T04:10:08.033Z,1.71
2016-12-06T04:11:07.724Z,1.76
2016-12-06T04:12:07.745Z,1.68
2016-12-06T04:13:07.434Z,1.74
2016-12-06T04:14:07.761Z,1.85
2016-12-06T04:15:07.771Z,1.92
2016-12-06T04:16:07.806Z,2.06
2016-12-06T04:17:08.106Z,1.95
2016-12-06T04:18:08.115Z,1.73
2016-12-06T04:19:07.814Z,1.71
2016-12-06T04:20:07.825Z,1.85
2016-12-06T04:21:07.843Z,1.67
2016-12-06T04:22:07.851Z,1.81
2016-12-06T04:23:07.854Z,1.94
2016-12-06T04:24:08.183Z,1.92
2016-12-06T04:25:07.573Z,1.94
2016-12-06T04:26:07.584Z,1.94
2016-12-06T04:27:07.928Z,2
2016-12-06T04:28:07.591Z,1.95
2016-12-06T04:29:07.944Z,1.99
2016-12-06T04:30:07.933Z,1.92
2016-12-06T04:31:07.941Z,1.89
2016-12-06T04:32:07.638Z,1.92
2016-12-06T04:33:07.961Z,1.89
2016-12-06T04:34:08.290Z,1.94
2016-12-06T04:35:07.983Z,1.92
2016-12-06T04:36:07.677Z,1.91
2016-12-06T04:37:08.322Z,1.89
2016-12-06T04:38:07.700Z,1.81
2016-12-06T04:39:08.365Z,1.89
2016-12-06T04:40:07.725Z,1.81
2016-12-06T04:41:08.361Z,1.81
2016-12-06T04:42:07.743Z,1.7
2016-12-06T04:43:08.074Z,1.78
2016-12-06T04:44:08.081Z,1.71
2016-12-06T04:45:07.775Z,1.62
2016-12-06T04:46:22.995Z,1.45
2016-12-06T04:47:08.114Z,1.67
2016-12-06T04:48:07.811Z,1.44
2016-12-06T04:49:08.133Z,1.55
2016-12-06T04:50:08.145Z,1.52
2016-12-06T04:51:08.206Z,1.44
2016-12-06T04:52:08.172Z,1.56
2016-12-06T04:53:08.178Z,1.6
2016-12-06T04:54:08.505Z,1.66
2016-12-06T04:55:08.195Z,1.76
2016-12-06T04:56:08.209Z,1.71
2016-12-06T04:57:08.222Z,1.76
2016-12-06T04:58:08.545Z,1.81
2016-12-06T04:59:08.240Z,1.91
2016-12-06T05:00:08.573Z,1.89
2016-12-06T05:01:07.946Z,1.91
2016-12-06T05:02:08.321Z,1.85
2016-12-06T05:03:08.284Z,1.92
2016-12-06T05:04:08.624Z,1.95
2016-12-06T05:05:07.995Z,2.06
2016-12-06T05:06:08.314Z,2.07
2016-12-06T05:07:08.010Z,2
2016-12-06T05:08:08.338Z,1.94
2016-12-06T05:09:08.350Z,1.88
2016-12-06T05:10:08.042Z,1.78
2016-12-06T05:11:08.375Z,1.91
2016-12-06T05:12:08.064Z,1.84
2016-12-06T05:13:08.394Z,1.92
2016-12-06T05:14:08.165Z,1.94
2016-12-06T05:15:08.728Z,1.99
2016-12-06T05:16:08.422Z,1.94
2016-12-06T05:17:08.440Z,2.06
2016-12-06T05:18:08.762Z,2.04
2016-12-06T05:19:08.457Z,2.06
2016-12-06T05:20:08.468Z,2.02
2016-12-06T05:21:08.161Z,2.11
2016-12-06T05:22:08.509Z,2.11
2016-12-06T05:23:08.515Z,2.17
2016-12-06T05:24:08.212Z,2.1
2016-12-06T05:25:08.525Z,2.1
2016-12-06T05:26:08.218Z,2.2
2016-12-06T05:27:08.547Z,2.24
2016-12-06T05:28:08.558Z,2.17
2016-12-06T05:29:08.625Z,2.13
2016-12-06T05:30:08.267Z,2.11
2016-12-06T05:31:08.584Z,2.13
2016-12-06T05:32:08.286Z,2.14
2016-12-06T05:33:08.293Z,2.15
2016-12-06T05:34:08.932Z,2.18
2016-12-06T05:35:08.632Z,2.26
2016-12-06T05:36:08.646Z,2.2
2016-12-06T05:37:08.965Z,2.28
2016-12-06T05:38:08.665Z,2.28
2016-12-06T05:39:08.695Z,2.28
2016-12-06T05:40:08.369Z,2.29
2016-12-06T05:41:08.701Z,2.29
2016-12-06T05:42:08.387Z,2.32
2016-12-06T05:43:08.726Z,2.42
2016-12-06T05:44:08.448Z,2.43
2016-12-06T05:45:08.741Z,2.51
2016-12-06T05:46:08.751Z,2.53
2016-12-06T05:47:09.115Z,2.56
2016-12-06T05:48:08.771Z,2.6
2016-12-06T05:49:08.467Z,2.57
2016-12-06T05:50:08.796Z,2.56
2016-12-06T05:51:08.806Z,2.62
2016-12-06T05:52:08.503Z,2.57
2016-12-06T05:53:09.146Z,2.6
2016-12-06T05:54:08.841Z,2.6
2016-12-06T05:55:08.850Z,2.57
2016-12-06T05:56:09.181Z,2.64
2016-12-06T05:57:08.575Z,2.57
2016-12-06T05:58:09.202Z,2.61
2016-12-06T05:59:09.210Z,2.57
2016-12-06T06:00:08.906Z,2.71
2016-12-06T06:01:09.240Z,2.65
2016-12-06T06:02:09.251Z,2.69
2016-12-06T06:03:08.942Z,2.71
2016-12-06T06:04:08.979Z,2.89
2016-12-06T06:05:08.963Z,2.69
2016-12-06T06:06:08.977Z,2.82
2016-12-06T06:07:08.991Z,2.83
2016-12-06T06:08:09.016Z,2.86
2016-12-06T06:09:08.694Z,2.85
2016-12-06T06:10:08.710Z,2.93
2016-12-06T06:11:09.036Z,2.8
2016-12-06T06:12:08.729Z,2.85
2016-12-06T06:13:09.053Z,2.95
2016-12-06T06:14:09.380Z,3.03
2016-12-06T06:15:09.398Z,3.07
2016-12-06T06:16:09.088Z,3.14
2016-12-06T06:17:08.786Z,3.04
2016-12-06T06:18:09.111Z,2.95
2016-12-06T06:19:09.122Z,2.97
2016-12-06T06:20:09.140Z,3.1
2016-12-06T06:21:09.458Z,3.01
2016-12-06T06:22:09.156Z,2.9
2016-12-06T06:23:08.857Z,2.8
2016-12-06T06:24:09.493Z,2.82
2016-12-06T06:25:09.196Z,2.85
2016-12-06T06:26:09.516Z,2.85
2016-12-06T06:27:09.531Z,2.85
2016-12-06T06:28:08.917Z,2.8
2016-12-06T06:29:09.562Z,2.85
2016-12-06T06:30:09.256Z,2.93
2016-12-06T06:31:08.969Z,2.87
2016-12-06T06:32:09.584Z,2.87
2016-12-06T06:33:08.965Z,2.85
2016-12-06T06:34:09.299Z,2.92
2016-12-06T06:35:09.017Z,2.74
2016-12-06T06:36:09.324Z,2.71
2016-12-06T06:37:09.329Z,2.77
2016-12-06T06:38:09.346Z,2.6
2016-12-06T06:39:09.354Z,2.62
2016-12-06T06:40:09.059Z,2.74
2016-12-06T06:41:09.385Z,2.74
2016-12-06T06:42:09.083Z,2.68
2016-12-06T06:43:09.395Z,2.69
2016-12-06T06:44:09.092Z,2.69
2016-12-06T06:45:09.102Z,2.85
2016-12-06T06:46:09.431Z,2.86
2016-12-06T06:47:09.444Z,2.86
2016-12-06T06:48:09.142Z,2.97
2016-12-06T06:49:09.466Z,2.89
2016-12-06T06:50:09.817Z,2.83
2016-12-06T06:51:09.801Z,2.86
2016-12-06T06:52:09.814Z,2.86
2016-12-06T06:53:09.830Z,2.85
2016-12-06T06:54:09.215Z,2.87
2016-12-06T06:55:10.029Z,2.95
2016-12-06T06:56:09.550Z,2.95
2016-12-06T06:57:09.562Z,2.97
2016-12-06T06:58:09.261Z,2.9
2016-12-06T06:59:09.586Z,3.04
2016-12-06T07:00:09.595Z,3.04
2016-12-06T07:01:09.951Z,2.9
2016-12-06T07:02:09.618Z,2.93
2016-12-06T07:03:09.631Z,2.87
2016-12-06T07:04:09.325Z,2.92
2016-12-06T07:05:09.969Z,2.87
2016-12-06T07:06:09.349Z,3
2016-12-06T07:07:09.675Z,3.05
2016-12-06T07:08:09.693Z,3.01
2016-12-06T07:09:10.014Z,3.04
2016-12-06T07:10:09.713Z,3.07
2016-12-06T07:11:09.725Z,3
2016-12-06T07:12:09.736Z,3.07
2016-12-06T07:13:09.750Z,3.13
2016-12-06T07:14:09.440Z,3.1
2016-12-06T07:15:10.106Z,3.08
2016-12-06T07:16:09.780Z,3.23
2016-12-06T07:17:09.479Z,3.22
2016-12-06T07:18:09.807Z,3.18
2016-12-06T07:19:09.819Z,3.21
2016-12-06T07:20:10.146Z,3.26
2016-12-06T07:21:10.159Z,3.26
2016-12-06T07:22:10.173Z,3.23
2016-12-06T07:23:09.866Z,3.21
2016-12-06T07:24:09.880Z,3.25
2016-12-06T07:25:09.576Z,3.32
2016-12-06T07:26:09.918Z,3.4
2016-12-06T07:27:09.602Z,3.36
2016-12-06T07:28:09.609Z,3.37
2016-12-06T07:29:09.937Z,3.34
2016-12-06T07:30:09.950Z,3.32
2016-12-06T07:31:09.643Z,3.5
2016-12-06T07:32:09.972Z,3.48
2016-12-06T07:33:09.987Z,3.45
2016-12-06T07:34:10.313Z,3.48
2016-12-06T07:35:10.010Z,3.5
2016-12-06T07:36:09.707Z,3.62
2016-12-06T07:37:10.051Z,3.62
2016-12-06T07:38:10.047Z,3.68
2016-12-06T07:39:09.756Z,3.77
2016-12-06T07:40:09.753Z,3.8
2016-12-06T07:41:10.079Z,3.78
2016-12-06T07:42:09.775Z,3.74
2016-12-06T07:43:09.789Z,3.78
2016-12-06T07:44:10.113Z,3.8
2016-12-06T07:45:09.813Z,3.88
2016-12-06T07:46:10.461Z,3.86
2016-12-06T07:47:10.174Z,3.96
2016-12-06T07:48:09.849Z,3.91
2016-12-06T07:49:10.180Z,3.95
2016-12-06T07:50:10.509Z,3.99
2016-12-06T07:51:10.521Z,4.02
2016-12-06T07:52:10.217Z,4.19
2016-12-06T07:53:10.229Z,4.14
2016-12-06T07:54:09.924Z,4.16
2016-12-06T07:55:10.255Z,4.28
2016-12-06T07:56:10.263Z,4.23
2016-12-06T07:57:10.614Z,4.31
2016-12-06T07:58:09.989Z,4.3
2016-12-06T07:59:09.997Z,4.4
2016-12-06T08:00:10.011Z,4.37
2016-12-06T08:01:10.322Z,4.31
2016-12-06T08:02:10.338Z,4.41
2016-12-06T08:03:10.668Z,4.56
2016-12-06T08:04:10.364Z,4.49
2016-12-06T08:05:10.385Z,4.6
2016-12-06T08:06:10.400Z,4.59
2016-12-06T08:07:10.402Z,4.58
2016-12-06T08:08:10.732Z,4.59
2016-12-06T08:09:10.428Z,4.63
2016-12-06T08:10:10.448Z,4.56
2016-12-06T08:11:10.768Z,4.6
2016-12-06T08:12:10.464Z,4.62
2016-12-06T08:13:10.480Z,4.59
2016-12-06T08:14:10.174Z,4.62
2016-12-06T08:15:10.505Z,4.6
2016-12-06T08:16:10.528Z,4.6
2016-12-06T08:17:10.540Z,4.62
2016-12-06T08:18:10.540Z,4.5
2016-12-06T08:19:10.559Z,4.56
2016-12-06T08:20:10.261Z,4.58
2016-12-06T08:21:10.580Z,4.73
2016-12-06T08:22:10.592Z,4.8
2016-12-06T08:23:10.604Z,4.67
2016-12-06T08:24:10.624Z,4.78
2016-12-06T08:25:10.632Z,4.71
2016-12-06T08:26:10.330Z,4.9
2016-12-06T08:27:10.655Z,4.89
2016-12-06T08:28:10.671Z,4.96
2016-12-06T08:29:10.690Z,5.12
2016-12-06T08:30:10.383Z,5.04
2016-12-06T08:31:10.730Z,5.05
2016-12-06T08:32:10.723Z,5.02
2016-12-06T08:33:10.735Z,5.1
2016-12-06T08:34:10.432Z,5.14
2016-12-06T08:35:10.766Z,5.15
2016-12-06T08:36:11.095Z,5.2
2016-12-06T08:37:10.785Z,5.14
2016-12-06T08:38:10.810Z,5.12
2016-12-06T08:39:10.501Z,5.15
2016-12-06T08:40:10.511Z,5.28
2016-12-06T08:41:10.535Z,5.26
2016-12-06T08:42:11.173Z,5.3
2016-12-06T08:43:11.178Z,5.43
2016-12-06T08:44:10.881Z,5.36
2016-12-06T08:45:10.892Z,5.44
2016-12-06T08:46:10.593Z,5.44
2016-12-06T08:47:10.600Z,5.47
2016-12-06T08:48:10.933Z,5.61
2016-12-06T08:49:10.949Z,5.48
2016-12-06T08:50:10.961Z,5.53
2016-12-06T08:51:10.971Z,5.57
2016-12-06T08:52:10.986Z,5.69
2016-12-06T08:53:10.684Z,5.71
2016-12-06T08:54:10.702Z,5.87
2016-12-06T08:55:10.713Z,5.87
2016-12-06T08:56:11.356Z,5.82
2016-12-06T08:57:11.055Z,5.84
2016-12-06T08:58:11.063Z,5.9
2016-12-06T08:59:10.764Z,5.9
2016-12-06T09:00:11.410Z,5.98
2016-12-06T09:01:11.111Z,6.02
2016-12-06T09:02:11.118Z,6.01
2016-12-06T09:03:11.138Z,6.05
2016-12-06T09:04:11.464Z,6.09
2016-12-06T09:05:10.843Z,6.02
2016-12-06T09:06:25.746Z,6.09
2016-12-06T09:07:11.209Z,6.08
2016-12-06T09:08:11.522Z,6.22
2016-12-06T09:09:11.529Z,6.27
2016-12-06T09:10:11.546Z,6.48
2016-12-06T09:11:11.241Z,6.77
2016-12-06T09:12:10.940Z,7.39
2016-12-06T09:13:10.953Z,7.93
2016-12-06T09:14:10.973Z,7.95
2016-12-06T09:15:10.982Z,8.05
2016-12-06T09:16:10.997Z,8
2016-12-06T09:17:11.646Z,8.12
2016-12-06T09:18:11.344Z,8.3
2016-12-06T09:19:11.048Z,8.61
2016-12-06T09:20:11.060Z,8.97
2016-12-06T09:21:11.705Z,9.19
2016-12-06T09:22:11.443Z,9.39
2016-12-06T09:23:11.422Z,9.5
2016-12-06T09:24:11.120Z,9.5
2016-12-06T09:25:11.455Z,9.23
2016-12-06T09:26:11.471Z,9.34
2016-12-06T09:27:11.192Z,9.47
2016-12-06T09:28:11.511Z,9.5
2016-12-06T09:29:11.831Z,9.74
2016-12-06T09:30:11.852Z,9.69
2016-12-06T09:31:11.559Z,9.83
2016-12-06T09:32:11.885Z,9.82
2016-12-06T09:33:11.591Z,9.91
2016-12-06T09:34:11.607Z,9.98
2016-12-06T09:35:11.624Z,10.13
2016-12-06T09:36:11.641Z,10.4
2016-12-06T09:37:11.340Z,10.71
2016-12-06T09:38:11.677Z,10.92
2016-12-06T09:39:12.021Z,11.14
2016-12-06T09:40:11.715Z,11.27
2016-12-06T09:41:11.731Z,11.5
2016-12-06T09:42:11.436Z,11.62
2016-12-06T09:43:12.085Z,11.78
2016-12-06T09:44:12.106Z,11.86
2016-12-06T09:45:12.121Z,12.04
2016-12-06T09:46:11.828Z,12.15
2016-12-06T09:47:11.532Z,12.25
2016-12-06T09:48:11.548Z,12.4
2016-12-06T09:49:11.884Z,12.61
2016-12-06T09:50:11.908Z,12.64
2016-12-06T09:51:11.925Z,12.87
2016-12-06T09:52:11.629Z,12.91
2016-12-06T09:53:11.963Z,13.05
2016-12-06T09:54:11.982Z,13.13
2016-12-06T09:55:12.319Z,13.3
2016-12-06T09:56:12.023Z,13.33
2016-12-06T09:57:11.759Z,13.39
2016-12-06T09:58:12.062Z,13.35
2016-12-06T09:59:12.086Z,13.27
2016-12-06T10:00:12.104Z,13.27
2016-12-06T10:01:12.123Z,13.5
2016-12-06T10:02:12.145Z,13.49
2016-12-06T10:03:11.847Z,13.47
2016-12-06T10:04:12.185Z,13.37
2016-12-06T10:05:12.522Z,13.31
2016-12-06T10:06:12.228Z,13.11
2016-12-06T10:07:12.249Z,12.8
2016-12-06T10:08:12.583Z,12.78
2016-12-06T10:09:12.287Z,12.83
2016-12-06T10:10:12.310Z,13.04
2016-12-06T10:11:12.030Z,13.15
2016-12-06T10:12:12.350Z,12.9
2016-12-06T10:13:12.371Z,12.9
2016-12-06T10:14:12.706Z,12.83
2016-12-06T10:15:12.092Z,12.67
2016-12-06T10:16:12.119Z,12.58
2016-12-06T10:17:12.465Z,12.65
2016-12-06T10:18:12.472Z,12.82
2016-12-06T10:19:12.813Z,13.16
2016-12-06T10:20:12.512Z,13.46
2016-12-06T10:21:12.219Z,13.49
2016-12-06T10:22:12.564Z,13.83
2016-12-06T10:23:12.258Z,13.86
2016-12-06T10:24:12.280Z,13.95
2016-12-06T10:25:12.616Z,14.08
2016-12-06T10:26:12.956Z,14.07
2016-12-06T10:27:12.341Z,14.28
2016-12-06T10:28:12.989Z,14.22
2016-12-06T10:29:13.013Z,14.43
2016-12-06T10:30:13.061Z,14.53
2016-12-06T10:31:12.740Z,14.7
2016-12-06T10:32:12.759Z,14.55
2016-12-06T10:33:13.099Z,14.5
2016-12-06T10:35:12.830Z,14.54
2016-12-06T10:36:13.167Z,14.6
2016-12-06T10:37:13.182Z,14.94
2016-12-06T10:38:12.576Z,15.06
2016-12-06T10:39:12.917Z,15.18
2016-12-06T10:40:12.613Z,15.22
2016-12-06T10:41:12.952Z,15.25
2016-12-06T10:42:12.978Z,15.24
2016-12-06T10:43:13.004Z,15.35
2016-12-06T10:44:12.706Z,15.29
2016-12-06T10:45:13.359Z,15.37
2016-12-06T10:46:12.749Z,15.33
2016-12-06T10:47:13.080Z,15.44
2016-12-06T10:48:12.830Z,15.55
2016-12-06T10:49:13.440Z,15.57
2016-12-06T10:50:13.145Z,15.21
2016-12-06T10:51:13.166Z,14.62
2016-12-06T10:52:12.873Z,14.6
2016-12-06T10:53:13.209Z,14.72
2016-12-06T10:54:13.264Z,14.85
2016-12-06T10:55:13.253Z,15.02
2016-12-06T10:56:12.967Z,15.35
2016-12-06T10:57:13.606Z,15.47
2016-12-06T10:58:13.316Z,15.72
2016-12-06T10:59:13.020Z,15.79
2016-12-06T11:00:13.360Z,15.95
2016-12-06T11:01:13.742Z,16.13
2016-12-06T11:02:13.726Z,16.13
2016-12-06T11:03:13.428Z,16.1
2016-12-06T11:04:13.445Z,16.28
2016-12-06T11:05:13.169Z,16.05
2016-12-06T11:06:13.803Z,15.95
2016-12-06T11:07:13.828Z,16.04
2016-12-06T11:08:13.216Z,15.75
2016-12-06T11:09:13.553Z,15.37
2016-12-06T11:10:13.574Z,15.57
2016-12-06T11:11:13.620Z,15.88
2016-12-06T11:12:13.314Z,16.23
2016-12-06T11:13:13.970Z,16.42
2016-12-06T11:14:13.670Z,16.56
2016-12-06T11:15:13.692Z,16.6
2016-12-06T11:16:13.394Z,16.72
2016-12-06T11:17:13.413Z,16.76
2016-12-06T11:18:13.750Z,16.93
2016-12-06T11:19:14.087Z,17.04
2016-12-06T11:20:13.479Z,17.09
2016-12-06T11:21:13.815Z,17.01
2016-12-06T11:22:13.518Z,16.91
2016-12-06T11:23:14.177Z,16.91
2016-12-06T11:24:13.878Z,16.91
2016-12-06T11:25:13.586Z,16.91
2016-12-06T11:26:13.929Z,16.71
2016-12-06T11:27:14.262Z,16.91
2016-12-06T11:28:14.285Z,16.93
2016-12-06T11:29:13.991Z,17.05
2016-12-06T11:30:14.014Z,17.05
2016-12-06T11:31:14.033Z,17.14
2016-12-06T11:32:14.057Z,17.23
2016-12-06T11:33:14.392Z,17.16
2016-12-06T11:34:14.121Z,16.99
2016-12-06T11:35:13.815Z,16.94
2016-12-06T11:36:14.459Z,16.93
2016-12-06T11:37:14.182Z,17.04
2016-12-06T11:38:13.873Z,17.27
2016-12-06T11:39:14.213Z,16.79
2016-12-06T11:40:13.921Z,16.65
2016-12-06T11:41:14.260Z,16.74
2016-12-06T11:42:13.962Z,16.91
2016-12-06T11:43:14.297Z,17.04
2016-12-06T11:44:14.321Z,16.93
2016-12-06T11:45:14.027Z,16.76
2016-12-06T11:46:14.051Z,16.56
2016-12-06T11:47:14.075Z,16.5
2016-12-06T11:48:14.726Z,16.47
2016-12-06T11:49:14.116Z,16.56
2016-12-06T11:50:14.475Z,16.65
2016-12-06T11:51:14.474Z,16.39
2016-12-06T11:52:14.186Z,16.57
2016-12-06T11:53:14.523Z,16.61
2016-12-06T11:54:14.860Z,16.76
2016-12-06T11:55:14.252Z,16.68
2016-12-06T11:56:14.589Z,16.64
2016-12-06T11:57:29.519Z,16.51
2016-12-06T11:58:14.632Z,16.42
2016-12-06T11:59:14.972Z,16.43
2016-12-06T12:00:14.358Z,16.57
2016-12-06T12:01:14.695Z,16.43
2016-12-06T12:02:14.411Z,16.42
2016-12-06T12:03:15.059Z,16.57
2016-12-06T12:04:14.766Z,16.41
2016-12-06T12:05:15.104Z,16.57
2016-12-06T12:06:15.123Z,16.41
2016-12-06T12:07:15.146Z,16.23
2016-12-06T12:08:14.848Z,16.16
2016-12-06T12:09:15.192Z,16.02
2016-12-06T12:10:14.584Z,16.02
2016-12-06T12:11:15.239Z,16.36
2016-12-06T12:12:14.623Z,16.43
2016-12-06T12:13:14.975Z,16.38
2016-12-06T12:14:15.305Z,16.51
2016-12-06T12:15:15.005Z,16.51
2016-12-06T12:16:14.713Z,16.38
2016-12-06T12:17:15.069Z,16.13
2016-12-06T12:18:14.760Z,16.04
2016-12-06T12:19:15.410Z,15.95
2016-12-06T12:20:15.437Z,16.04
2016-12-06T12:21:15.455Z,16.42
2016-12-06T12:22:15.477Z,16.61
2016-12-06T12:23:15.499Z,16.9
2016-12-06T12:24:15.543Z,16.97
2016-12-06T12:25:14.913Z,17.02
2016-12-06T12:26:14.933Z,16.96
2016-12-06T12:27:15.272Z,16.68
2016-12-06T12:28:15.292Z,16.64
2016-12-06T12:29:15.003Z,16.66
2016-12-06T12:30:15.349Z,16.86
2016-12-06T12:31:15.677Z,16.65
2016-12-06T12:32:15.380Z,16.75
2016-12-06T12:33:15.408Z,16.58
2016-12-06T12:34:15.748Z,16.43
2016-12-06T12:35:15.463Z,16.53
2016-12-06T12:36:15.475Z,16.72
2016-12-06T12:37:15.497Z,16.61
2016-12-06T12:38:15.829Z,16.39
2016-12-06T12:39:15.540Z,16.56
2016-12-06T12:40:15.572Z,16.72
2016-12-06T12:41:15.578Z,16.57
2016-12-06T12:42:15.601Z,16.76
2016-12-06T12:43:15.626Z,16.74
2016-12-06T12:44:15.964Z,16.74
2016-12-06T12:45:15.359Z,16.68
2016-12-06T12:46:15.377Z,16.65
2016-12-06T12:47:16.028Z,16.74
2016-12-06T12:48:15.735Z,16.89
2016-12-06T12:49:16.078Z,17.05
2016-12-06T12:50:15.778Z,16.89
2016-12-06T12:51:15.602Z,16.93
2016-12-06T12:52:15.507Z,17.02
2016-12-06T12:53:15.548Z,17.15
2016-12-06T12:54:15.986Z,17.19
2016-12-06T12:55:16.207Z,17.08
2016-12-06T12:56:15.596Z,17.24
2016-12-06T12:57:15.632Z,17.11
2016-12-06T12:58:16.279Z,16.89
2016-12-06T12:59:15.977Z,16.9
2016-12-06T13:00:15.998Z,16.75
2016-12-06T13:01:16.024Z,16.91
2016-12-06T13:02:16.061Z,16.71
2016-12-06T13:03:15.754Z,16.78
2016-12-06T13:04:16.406Z,16.93
2016-12-06T13:05:16.112Z,16.74
2016-12-06T13:06:16.456Z,16.56
2016-12-06T13:07:16.472Z,16.78
2016-12-06T13:08:15.928Z,16.65
2016-12-06T13:09:16.240Z,16.6
2016-12-06T13:10:16.233Z,16.65
2016-12-06T13:11:16.247Z,16.72
2016-12-06T13:12:15.953Z,16.87
2016-12-06T13:13:16.311Z,16.75
2016-12-06T13:14:16.312Z,16.66
2016-12-06T13:15:16.648Z,16.66